createdAt,value
2023-11-18T00:01:26.767Z,99.94
2023-11-18T00:04:35.506Z,100.00
2023-11-18T00:07:44.432Z,99.83
2023-11-18T00:10:56.281Z,99.75
2023-11-18T00:14:06.903Z,99.76
2023-11-18T00:17:15.337Z,100.00
2023-11-18T00:20:25.258Z,100.00
2023-11-18T00:23:33.820Z,100.00
2023-11-18T00:26:42.446Z,100.00
2023-11-18T00:29:54.447Z,99.40
2023-11-18T00:33:03.374Z,99.46
2023-11-18T00:36:12.602Z,99.83
2023-11-18T00:39:21.865Z,100.00
2023-11-18T00:42:30.445Z,99.39
2023-11-18T00:45:42.511Z,99.11
2023-11-18T00:48:51.327Z,98.74
2023-11-18T00:51:59.635Z,99.19
2023-11-18T00:55:10.275Z,98.90
2023-11-18T00:58:19.757Z,99.28
2023-11-18T01:01:30.694Z,99.03
2023-11-18T01:04:39.344Z,97.86
2023-11-18T01:07:48.630Z,97.37
2023-11-18T01:10:57.238Z,97.72
2023-11-18T01:14:05.856Z,98.13
2023-11-18T01:17:16.656Z,98.26
2023-11-18T01:20:25.022Z,97.76
2023-11-18T01:23:34.158Z,97.93
2023-11-18T01:26:43.064Z,97.73
2023-11-18T01:29:51.895Z,98.61
2023-11-18T01:33:02.466Z,97.86
2023-11-18T01:36:13.306Z,97.89
2023-11-18T01:39:23.350Z,97.31
2023-11-18T01:42:32.602Z,97.71
2023-11-18T01:45:42.154Z,97.42
2023-11-18T01:48:52.964Z,98.05
2023-11-18T01:52:09.170Z,97.55
2023-11-18T01:55:18.799Z,96.36
2023-11-18T01:58:29.735Z,96.80
2023-11-18T02:01:40.706Z,97.70
2023-11-18T02:04:51.690Z,97.07
2023-11-18T02:08:01.185Z,97.19
2023-11-18T02:11:20.096Z,96.82
2023-11-18T02:14:32.884Z,96.69
2023-11-18T02:17:44.738Z,96.93
2023-11-18T02:20:58.458Z,96.33
2023-11-18T02:24:08.411Z,96.94
2023-11-18T02:27:21.869Z,97.44
2023-11-18T02:30:32.129Z,97.10
2023-11-18T02:33:54.590Z,96.71
2023-11-18T02:37:08.856Z,96.71
2023-11-18T02:40:22.468Z,97.00
2023-11-18T02:43:32.205Z,96.17
2023-11-18T02:46:44.815Z,96.56
2023-11-18T02:50:07.397Z,96.87
2023-11-18T02:53:15.902Z,96.91
2023-11-18T02:56:24.110Z,96.73
2023-11-18T02:59:34.610Z,96.45
2023-11-18T03:02:44.480Z,97.08
2023-11-18T03:05:53.005Z,96.70
2023-11-18T03:09:01.559Z,96.55
2023-11-18T03:12:11.058Z,96.61
2023-11-18T03:15:21.327Z,96.55
2023-11-18T03:18:30.724Z,96.62
2023-11-18T03:21:40.061Z,96.32
2023-11-18T03:24:48.638Z,97.05
2023-11-18T03:27:57.071Z,96.10
2023-11-18T03:31:11.292Z,96.46
2023-11-18T03:34:21.746Z,97.08
2023-11-18T03:37:30.575Z,96.15
2023-11-18T03:40:39.000Z,96.32
2023-11-18T03:43:49.148Z,96.77
2023-11-18T03:47:00.042Z,96.53
2023-11-18T03:50:10.610Z,96.67
2023-11-18T03:53:19.264Z,96.71
2023-11-18T03:56:28.188Z,96.87
2023-11-18T03:59:36.563Z,96.94
2023-11-18T04:02:47.129Z,96.95
2023-11-18T04:05:55.664Z,97.96
2023-11-18T04:09:07.008Z,96.90
2023-11-18T04:12:17.307Z,96.63
2023-11-18T04:15:28.184Z,96.52
2023-11-18T04:18:37.859Z,97.20
2023-11-18T04:21:49.458Z,97.60
2023-11-18T04:24:57.712Z,96.33
2023-11-18T04:28:06.249Z,96.42
2023-11-18T04:31:15.571Z,97.28
2023-11-18T04:34:27.644Z,97.49
2023-11-18T04:37:39.644Z,97.00
2023-11-18T04:40:52.165Z,95.92
2023-11-18T04:44:01.162Z,96.87
2023-11-18T04:47:09.823Z,95.93
2023-11-18T04:50:19.960Z,97.58
2023-11-18T04:53:28.386Z,97.01
2023-11-18T04:56:37.319Z,96.84
2023-11-18T04:59:45.718Z,96.64
2023-11-18T05:02:54.140Z,96.60
2023-11-18T05:06:05.592Z,96.89
2023-11-18T05:09:13.917Z,97.72
2023-11-18T05:12:22.523Z,97.73
2023-11-18T05:15:32.305Z,97.22
2023-11-18T05:18:41.032Z,97.18
2023-11-18T05:21:51.253Z,96.48
2023-11-18T05:25:00.426Z,97.54
2023-11-18T05:28:09.646Z,96.53
2023-11-18T05:31:18.758Z,96.60
2023-11-18T05:34:27.881Z,96.87
2023-11-18T05:37:39.284Z,97.08
2023-11-18T05:40:56.918Z,96.71
2023-11-18T05:44:07.171Z,96.26
2023-11-18T05:47:15.463Z,96.98
2023-11-18T05:50:25.719Z,96.37
2023-11-18T05:53:35.488Z,96.73
2023-11-18T05:56:44.423Z,96.24
2023-11-18T05:59:52.571Z,96.51
2023-11-18T06:03:02.131Z,97.20
2023-11-18T06:06:12.614Z,96.91
2023-11-18T06:09:26.404Z,95.95
2023-11-18T06:12:37.012Z,96.35
2023-11-18T06:15:46.200Z,95.85
2023-11-18T06:18:56.520Z,97.11
2023-11-18T06:22:07.019Z,96.70
2023-11-18T06:25:17.433Z,96.72
2023-11-18T06:28:27.313Z,96.69
2023-11-18T06:31:35.909Z,96.30
2023-11-18T06:34:44.398Z,96.05
2023-11-18T06:37:53.677Z,96.38
2023-11-18T06:41:07.305Z,96.85
2023-11-18T06:44:19.232Z,96.58
2023-11-18T06:47:28.150Z,96.76
2023-11-18T06:50:36.531Z,96.33
2023-11-18T06:53:45.729Z,96.51
2023-11-18T06:56:55.309Z,96.23
2023-11-18T07:00:09.163Z,96.23
2023-11-18T07:03:17.612Z,96.39
2023-11-18T07:06:28.135Z,95.52
2023-11-18T07:09:37.500Z,95.46
2023-11-18T07:12:47.167Z,95.10
2023-11-18T07:15:57.552Z,94.87
2023-11-18T07:19:05.904Z,94.66
2023-11-18T07:22:14.282Z,94.17
2023-11-18T07:25:23.033Z,93.76
2023-11-18T07:28:33.187Z,93.93
2023-11-18T07:31:41.584Z,92.76
2023-11-18T07:34:50.052Z,92.63
2023-11-18T07:37:59.726Z,93.25
2023-11-18T07:41:09.814Z,93.31
2023-11-18T07:44:19.659Z,92.44
2023-11-18T07:47:29.126Z,93.06
2023-11-18T07:50:38.089Z,92.27
2023-11-18T07:53:46.792Z,91.89
2023-11-18T07:56:55.698Z,91.25
2023-11-18T08:00:10.434Z,90.78
2023-11-18T08:03:25.070Z,89.91
2023-11-18T08:06:33.874Z,89.95
2023-11-18T08:09:44.375Z,90.77
2023-11-18T08:12:55.333Z,89.12
2023-11-18T08:16:05.934Z,89.45
2023-11-18T08:19:14.229Z,88.67
2023-11-18T08:22:24.131Z,89.05
2023-11-18T08:25:34.911Z,88.00
2023-11-18T08:28:43.705Z,87.17
2023-11-18T08:31:53.341Z,86.02
2023-11-18T08:35:01.629Z,86.14
2023-11-18T08:38:13.510Z,86.66
2023-11-18T08:41:23.458Z,86.79
2023-11-18T08:44:33.630Z,87.22
2023-11-18T08:47:47.105Z,86.08
2023-11-18T08:50:55.301Z,86.07
2023-11-18T08:54:18.208Z,85.86
2023-11-18T08:57:28.724Z,85.20
2023-11-18T09:00:51.411Z,84.87
2023-11-18T09:04:02.969Z,83.88
2023-11-18T09:07:12.164Z,83.57
2023-11-18T09:10:22.129Z,84.21
2023-11-18T09:13:31.123Z,84.08
2023-11-18T09:16:42.932Z,83.56
2023-11-18T09:19:54.321Z,83.22
2023-11-18T09:23:03.009Z,82.00
2023-11-18T09:26:11.780Z,82.69
2023-11-18T09:29:22.964Z,83.87
2023-11-18T09:32:35.385Z,83.74
2023-11-18T09:35:45.008Z,81.85
2023-11-18T09:38:54.738Z,82.51
2023-11-18T09:42:03.960Z,80.37
2023-11-18T09:45:15.082Z,79.40
2023-11-18T09:48:26.522Z,79.14
2023-11-18T09:51:41.149Z,78.55
2023-11-18T09:55:04.012Z,75.40
2023-11-18T09:58:25.162Z,76.77
2023-11-18T10:01:41.017Z,75.02
2023-11-18T10:04:51.228Z,76.67
2023-11-18T10:08:02.938Z,77.09
2023-11-18T10:11:15.028Z,75.80
2023-11-18T10:14:25.209Z,76.70
2023-11-18T10:17:33.863Z,78.63
2023-11-18T10:20:52.185Z,76.56
2023-11-18T10:24:11.742Z,76.67
2023-11-18T10:27:20.628Z,75.13
2023-11-18T10:30:28.967Z,75.59
2023-11-18T10:33:39.295Z,75.23
2023-11-18T10:37:03.472Z,73.72
2023-11-18T10:40:16.933Z,72.82
2023-11-18T10:43:26.605Z,72.55
2023-11-18T10:46:36.334Z,72.79
2023-11-18T10:49:45.049Z,73.58
2023-11-18T10:52:55.363Z,73.63
2023-11-18T10:56:07.547Z,71.44
2023-11-18T10:59:17.522Z,70.89
2023-11-18T11:02:26.021Z,68.61
2023-11-18T11:05:39.522Z,67.95
2023-11-18T11:08:49.331Z,64.40
2023-11-18T11:12:05.995Z,65.27
2023-11-18T11:15:23.726Z,67.60
2023-11-18T11:18:40.206Z,67.92
2023-11-18T11:22:06.929Z,63.18
2023-11-18T11:25:24.552Z,64.90
2023-11-18T11:28:45.192Z,69.01
2023-11-18T11:32:14.841Z,66.24
2023-11-18T11:35:32.279Z,62.53
2023-11-18T11:38:41.126Z,63.68
2023-11-18T11:41:55.722Z,63.91
2023-11-18T11:45:10.074Z,62.60
2023-11-18T11:48:27.651Z,65.61
2023-11-18T11:51:49.903Z,66.77
2023-11-18T11:55:13.864Z,65.96
2023-11-18T11:58:30.389Z,66.56
2023-11-18T12:01:41.468Z,66.50
2023-11-18T12:04:55.132Z,65.28
2023-11-18T12:08:03.742Z,64.89
2023-11-18T12:11:13.890Z,66.90
2023-11-18T12:14:39.340Z,65.55
2023-11-18T12:18:18.754Z,66.00
2023-11-18T12:21:56.896Z,64.75
2023-11-18T12:25:34.674Z,64.01
2023-11-18T12:28:47.174Z,65.98
2023-11-18T12:31:56.701Z,65.94
2023-11-18T12:35:17.982Z,66.40
2023-11-18T12:38:59.034Z,66.63
2023-11-18T12:42:13.081Z,65.53
2023-11-18T12:45:46.778Z,67.67
2023-11-18T12:49:01.063Z,66.32
2023-11-18T12:52:15.823Z,65.83
2023-11-18T12:55:24.382Z,65.64
2023-11-18T12:58:34.961Z,65.08
2023-11-18T13:01:44.249Z,66.06
2023-11-18T13:04:54.332Z,65.75
2023-11-18T13:08:04.649Z,66.67
2023-11-18T13:11:17.289Z,67.27
2023-11-18T13:14:28.476Z,67.24
2023-11-18T13:17:37.519Z,66.56
2023-11-18T13:20:58.541Z,66.19
2023-11-18T13:24:11.627Z,67.52
2023-11-18T13:27:22.101Z,67.69
2023-11-18T13:30:30.786Z,67.34
2023-11-18T13:33:41.251Z,67.26
2023-11-18T13:36:50.150Z,68.19
2023-11-18T13:40:01.728Z,68.11
2023-11-18T13:43:10.186Z,69.92
2023-11-18T13:46:20.608Z,67.53
2023-11-18T13:49:31.241Z,69.64
2023-11-18T13:52:39.937Z,71.07
2023-11-18T13:55:50.829Z,69.53
2023-11-18T13:59:00.714Z,70.47
2023-11-18T14:02:09.930Z,69.21
2023-11-18T14:05:19.106Z,70.91
2023-11-18T14:08:27.564Z,72.19
2023-11-18T14:11:37.790Z,72.92
2023-11-18T14:14:46.536Z,74.24
2023-11-18T14:17:55.417Z,74.82
2023-11-18T14:21:03.933Z,73.59
2023-11-18T14:24:13.311Z,71.98
2023-11-18T14:27:23.235Z,73.29
2023-11-18T14:30:31.729Z,73.62
2023-11-18T14:33:40.219Z,73.73
2023-11-18T14:36:48.779Z,74.79
2023-11-18T14:39:57.220Z,76.02
2023-11-18T14:43:09.127Z,76.12
2023-11-18T14:46:17.463Z,77.41
2023-11-18T14:49:25.742Z,78.49
2023-11-18T14:52:34.208Z,79.43
2023-11-18T14:55:43.250Z,80.29
2023-11-18T14:58:53.268Z,81.94
2023-11-18T15:02:01.844Z,82.30
2023-11-18T15:05:11.228Z,83.53
2023-11-18T15:08:19.903Z,84.21
2023-11-18T15:11:28.308Z,85.12
2023-11-18T15:14:40.255Z,85.65
2023-11-18T15:17:51.104Z,86.21
2023-11-18T15:20:59.960Z,86.19
2023-11-18T15:24:09.944Z,87.19
2023-11-18T15:27:18.506Z,87.08
2023-11-18T15:30:28.912Z,88.14
2023-11-18T15:33:38.554Z,87.92
2023-11-18T15:36:48.309Z,88.80
2023-11-18T15:39:56.920Z,88.44
2023-11-18T15:43:07.005Z,89.27
2023-11-18T15:46:16.634Z,89.24
2023-11-18T15:49:26.049Z,89.37
2023-11-18T15:52:36.207Z,88.84
2023-11-18T15:55:48.547Z,90.24
2023-11-18T15:58:57.525Z,89.78
2023-11-18T16:02:07.353Z,90.52
2023-11-18T16:05:17.021Z,90.77
2023-11-18T16:08:25.725Z,90.41
2023-11-18T16:11:34.036Z,90.55
2023-11-18T16:14:42.953Z,88.74
2023-11-18T16:17:54.351Z,89.15
2023-11-18T16:21:04.646Z,89.17
2023-11-18T16:24:12.891Z,87.58
2023-11-18T16:27:21.146Z,88.23
2023-11-18T16:30:31.157Z,88.34
2023-11-18T16:33:44.444Z,87.77
2023-11-18T16:36:57.557Z,87.66
2023-11-18T16:40:07.148Z,87.41
2023-11-18T16:43:16.448Z,87.98
2023-11-18T16:46:25.165Z,88.07
2023-11-18T16:49:34.864Z,88.14
2023-11-18T16:52:43.354Z,87.74
2023-11-18T16:55:51.547Z,87.49
2023-11-18T16:59:00.668Z,87.95
2023-11-18T17:02:10.207Z,87.87
2023-11-18T17:05:21.105Z,88.15
2023-11-18T17:08:31.170Z,88.35
2023-11-18T17:11:39.765Z,88.22
2023-11-18T17:14:50.207Z,88.03
2023-11-18T17:18:02.871Z,87.85
2023-11-18T17:21:13.673Z,88.30
2023-11-18T17:24:21.935Z,88.08
2023-11-18T17:27:30.123Z,86.58
2023-11-18T17:30:38.503Z,87.32
2023-11-18T17:33:47.579Z,87.18
2023-11-18T17:36:58.259Z,88.19
2023-11-18T17:40:12.202Z,88.15
2023-11-18T17:43:20.896Z,87.91
2023-11-18T17:46:29.365Z,88.19
2023-11-18T17:49:37.704Z,88.89
2023-11-18T17:52:48.649Z,88.52
2023-11-18T17:55:56.941Z,88.97
2023-11-18T17:59:05.291Z,88.88
2023-11-18T18:02:13.834Z,88.14
2023-11-18T18:05:22.525Z,87.87
2023-11-18T18:08:35.409Z,87.61
2023-11-18T18:11:43.694Z,88.20
2023-11-18T18:14:52.822Z,87.42
2023-11-18T18:18:01.112Z,88.04
2023-11-18T18:21:09.586Z,88.21
2023-11-18T18:24:19.208Z,86.95
2023-11-18T18:27:27.582Z,86.59
2023-11-18T18:30:35.911Z,86.88
2023-11-18T18:33:44.180Z,88.21
2023-11-18T18:36:52.395Z,88.59
2023-11-18T18:40:02.322Z,88.86
2023-11-18T18:43:11.729Z,88.20
2023-11-18T18:46:20.058Z,88.67
2023-11-18T18:49:28.428Z,88.83
2023-11-18T18:52:36.812Z,89.21
2023-11-18T18:55:46.605Z,89.49
2023-11-18T18:58:54.812Z,89.35
2023-11-18T19:02:03.047Z,89.10
2023-11-18T19:05:14.304Z,88.60
2023-11-18T19:08:24.177Z,89.72
2023-11-18T19:11:35.617Z,89.11
2023-11-18T19:14:44.031Z,89.93
2023-11-18T19:17:53.143Z,91.07
2023-11-18T19:21:01.375Z,91.86
2023-11-18T19:24:17.450Z,91.17
2023-11-18T19:27:27.082Z,91.80
2023-11-18T19:30:35.425Z,92.13
2023-11-18T19:33:44.758Z,92.00
2023-11-18T19:36:52.989Z,92.38
2023-11-18T19:40:01.321Z,92.11
2023-11-18T19:43:10.930Z,91.92
2023-11-18T19:46:19.249Z,93.60
2023-11-18T19:49:32.549Z,93.17
2023-11-18T19:52:41.105Z,93.64
2023-11-18T19:55:49.510Z,92.79
2023-11-18T19:58:59.127Z,92.52
2023-11-18T20:02:10.567Z,93.15
2023-11-18T20:05:19.025Z,92.94
2023-11-18T20:08:27.218Z,93.29
2023-11-18T20:11:36.510Z,93.63
2023-11-18T20:14:46.221Z,93.50
2023-11-18T20:17:54.551Z,92.81
2023-11-18T20:21:02.879Z,93.30
2023-11-18T20:24:11.577Z,93.88
2023-11-18T20:27:20.547Z,93.59
2023-11-18T20:30:31.272Z,93.26
2023-11-18T20:33:43.146Z,92.87
2023-11-18T20:36:51.904Z,92.88
2023-11-18T20:40:00.268Z,93.71
2023-11-18T20:43:08.943Z,93.48
2023-11-18T20:46:18.671Z,93.24
2023-11-18T20:49:28.050Z,92.63
2023-11-18T20:52:37.485Z,92.87
2023-11-18T20:55:46.493Z,93.18
2023-11-18T20:58:54.750Z,93.69
2023-11-18T21:02:05.096Z,93.96
2023-11-18T21:05:13.944Z,93.80
2023-11-18T21:08:22.466Z,94.16
2023-11-18T21:11:31.608Z,94.17
2023-11-18T21:14:40.016Z,94.32
2023-11-18T21:17:51.390Z,94.72
2023-11-18T21:20:59.804Z,95.04
2023-11-18T21:24:09.014Z,95.30
2023-11-18T21:27:18.173Z,95.16
2023-11-18T21:30:28.764Z,95.42
2023-11-18T21:33:38.766Z,94.89
2023-11-18T21:36:47.780Z,94.90
2023-11-18T21:39:56.019Z,95.02
2023-11-18T21:43:04.247Z,95.17
2023-11-18T21:46:13.027Z,94.32
2023-11-18T21:49:22.622Z,94.63
2023-11-18T21:52:30.959Z,94.68
2023-11-18T21:55:39.387Z,95.13
2023-11-18T21:58:47.929Z,95.88
2023-11-18T22:01:56.764Z,94.82
2023-11-18T22:05:08.299Z,95.04
2023-11-18T22:08:21.105Z,95.05
2023-11-18T22:11:36.995Z,95.34
2023-11-18T22:14:45.941Z,95.74
2023-11-18T22:17:54.417Z,95.94
2023-11-18T22:21:04.712Z,95.24
2023-11-18T22:24:13.961Z,95.57
2023-11-18T22:27:23.044Z,95.99
2023-11-18T22:30:31.788Z,95.73
2023-11-18T22:33:40.281Z,95.48
2023-11-18T22:36:50.448Z,95.97
2023-11-18T22:39:58.767Z,96.25
2023-11-18T22:43:08.340Z,96.13
2023-11-18T22:46:16.903Z,95.63
2023-11-18T22:49:25.266Z,95.17
2023-11-18T22:52:35.631Z,95.45
2023-11-18T22:55:45.646Z,95.24
2023-11-18T22:58:54.429Z,96.02
2023-11-18T23:02:04.383Z,95.96
2023-11-18T23:05:15.252Z,96.17
2023-11-18T23:08:25.036Z,97.27
2023-11-18T23:11:34.384Z,97.69
2023-11-18T23:14:42.690Z,97.89
2023-11-18T23:17:51.426Z,97.42
2023-11-18T23:21:00.446Z,97.03
2023-11-18T23:24:10.678Z,96.91
2023-11-18T23:27:18.953Z,96.29
2023-11-18T23:30:27.360Z,96.47
2023-11-18T23:33:36.792Z,95.84
2023-11-18T23:36:45.081Z,95.89
2023-11-18T23:39:55.585Z,97.13
2023-11-18T23:43:04.337Z,97.78
2023-11-18T23:46:15.262Z,96.44
2023-11-18T23:49:25.053Z,96.58
2023-11-18T23:52:33.834Z,96.77
2023-11-18T23:55:43.439Z,97.08
2023-11-18T23:58:51.702Z,97.00
